Strona główna
METAR-TAF:

METAR-TAF

Lotnisko :

Port lotniczy Trat

Trat, Tajlandia

Szerokość geograficzna: 12-16-28N, Długość geograficzna: 102-19-08E, wysokość: 32 m

Aktualna obserwacja pogody

Raport powstał 24 minut temu, godzina 04:00 UTC
Wiatr 10 kt od wschodnio-północny wschód
Temperatura 31°C
Wilgotność 46%
Ciśnienie 1014 hPa
Widzialność: 8000 m

METAR: VTBO 110400Z 06010KT 8000 NSC 31/18 Q1014

czas: 11:24 (04:24 UTC)

Prognoza

Raport powstał 5 godziny i 24 minut temu, godzina 23:00 UTC
Prognoza ważna od 11 godzina 00 UTC do 11 godzina 24 UTC
Wiatr kt od północ
Widzialność: 5000 m
zamglenie
Stopniowe zmiany
od 11 godzina 02 UTC do 11 godzina 04 UTC
Wiatr 8 kt od wschodnio-północny wschód
Widzialność 10 km lub więcej
Mało chmury na wysokości 4000 ft
Stopniowe zmiany
od 11 godzina 14 UTC do 11 godzina 16 UTC
Wiatr kt od północ
Widzialność: 8000 m

TAF: VTBO 102300Z 1100/1124 00000KT 5000 BR NSC BECMG 1102/1104 06008KT 9999 NSW FEW040 BECMG 1114/1116 00000KT 8000

Obserwacja i prognoza pogody dla ponad 4000 lotnisk (raport METAR i TAF).

Dostępne stacje oznaczono żółtymi i czerwonymi punktami na mapie.

Najedź kursorem aby zobaczyć nazwę stacji.

Kliknij aby zobaczyć obserwacje i prognozy pogody.

Aby zmienić mapę: kliknij na zielony przycisk z czarnym krzyżykiem, aby powiększyć; na zielony przycisk z myślnikiem, aby pomniejszyć; na zielone strzałki, aby przejść do map sąsiednich.


METAR-TAF: